sensor_id;sensor_type;location;lat;lon;timestamp;pressure;altitude;pressure_sealevel;temperature;humidity
42601;BME280;28229;48.856;9.088;2022-10-16T00:01:12;97824.31;;;15.14;96.64
42601;BME280;28229;48.856;9.088;2022-10-16T00:03:40;97818.41;;;15.07;97.62
42601;BME280;28229;48.856;9.088;2022-10-16T00:06:07;97815.72;;;15.02;97.83
42601;BME280;28229;48.856;9.088;2022-10-16T00:08:33;97811.72;;;14.99;98.44
42601;BME280;28229;48.856;9.088;2022-10-16T00:11:04;97812.03;;;15.03;98.65
42601;BME280;28229;48.856;9.088;2022-10-16T00:13:32;97816.31;;;15.09;97.94
42601;BME280;28229;48.856;9.088;2022-10-16T00:15:59;97815.56;;;15.14;97.30
42601;BME280;28229;48.856;9.088;2022-10-16T00:18:26;97813.91;;;15.08;97.84
42601;BME280;28229;48.856;9.088;2022-10-16T00:20:53;97808.41;;;15.14;97.26
42601;BME280;28229;48.856;9.088;2022-10-16T00:23:19;97813.41;;;15.11;97.41
42601;BME280;28229;48.856;9.088;2022-10-16T00:25:54;97812.09;;;15.13;97.00
42601;BME280;28229;48.856;9.088;2022-10-16T00:28:20;97812.16;;;15.18;96.43
42601;BME280;28229;48.856;9.088;2022-10-16T00:30:46;97812.63;;;15.10;97.29
42601;BME280;28229;48.856;9.088;2022-10-16T00:33:12;97813.72;;;15.14;96.82
42601;BME280;28229;48.856;9.088;2022-10-16T00:35:37;97819.00;;;15.14;96.75
42601;BME280;28229;48.856;9.088;2022-10-16T00:38:03;97821.41;;;15.16;96.47
42601;BME280;28229;48.856;9.088;2022-10-16T00:40:29;97832.00;;;15.16;96.29
42601;BME280;28229;48.856;9.088;2022-10-16T00:42:55;97826.91;;;15.09;96.98
42601;BME280;28229;48.856;9.088;2022-10-16T00:45:21;97830.41;;;15.15;96.07
42601;BME280;28229;48.856;9.088;2022-10-16T00:47:48;97826.47;;;15.17;95.79
42601;BME280;28229;48.856;9.088;2022-10-16T00:50:37;97814.81;;;15.18;95.86
42601;BME280;28229;48.856;9.088;2022-10-16T00:53:03;97821.13;;;15.12;96.33
42601;BME280;28229;48.856;9.088;2022-10-16T00:55:30;97822.41;;;15.10;96.66
42601;BME280;28229;48.856;9.088;2022-10-16T00:57:57;97821.50;;;14.99;97.49
42601;BME280;28229;48.856;9.088;2022-10-16T01:00:25;97827.91;;;15.03;97.04
42601;BME280;28229;48.856;9.088;2022-10-16T01:02:56;97832.16;;;15.04;97.24
42601;BME280;28229;48.856;9.088;2022-10-16T01:05:29;97839.47;;;14.97;97.48
42601;BME280;28229;48.856;9.088;2022-10-16T01:08:08;97839.06;;;15.05;96.75
42601;BME280;28229;48.856;9.088;2022-10-16T01:10:38;97834.84;;;15.09;96.22
42601;BME280;28229;48.856;9.088;2022-10-16T01:13:09;97837.81;;;15.13;95.95
42601;BME280;28229;48.856;9.088;2022-10-16T01:18:43;97836.00;;;15.18;95.78
42601;BME280;28229;48.856;9.088;2022-10-16T01:21:15;97823.03;;;15.17;95.58
42601;BME280;28229;48.856;9.088;2022-10-16T01:29:07;97833.00;;;15.10;95.84
42601;BME280;28229;48.856;9.088;2022-10-16T01:31:36;97832.38;;;15.02;96.34
42601;BME280;28229;48.856;9.088;2022-10-16T01:34:12;97828.72;;;15.03;96.57
42601;BME280;28229;48.856;9.088;2022-10-16T01:36:45;97827.41;;;15.06;96.23
42601;BME280;28229;48.856;9.088;2022-10-16T01:39:13;97830.00;;;15.01;96.76
42601;BME280;28229;48.856;9.088;2022-10-16T01:41:46;97827.91;;;15.03;96.58
42601;BME280;28229;48.856;9.088;2022-10-16T01:44:19;97832.16;;;15.04;96.44
42601;BME280;28229;48.856;9.088;2022-10-16T01:46:48;97821.06;;;15.07;96.15
42601;BME280;28229;48.856;9.088;2022-10-16T01:49:16;97825.03;;;15.10;96.25
42601;BME280;28229;48.856;9.088;2022-10-16T01:51:45;97824.81;;;15.11;95.86
42601;BME280;28229;48.856;9.088;2022-10-16T01:54:13;97815.28;;;15.10;95.90
42601;BME280;28229;48.856;9.088;2022-10-16T01:56:42;97806.56;;;15.15;95.76
42601;BME280;28229;48.856;9.088;2022-10-16T01:59:18;97807.38;;;15.15;96.21
42601;BME280;28229;48.856;9.088;2022-10-16T02:01:49;97813.16;;;15.12;95.47
42601;BME280;28229;48.856;9.088;2022-10-16T02:04:20;97821.59;;;15.09;95.59
42601;BME280;28229;48.856;9.088;2022-10-16T02:06:48;97823.72;;;15.07;95.68
42601;BME280;28229;48.856;9.088;2022-10-16T02:09:14;97829.25;;;15.06;95.52
42601;BME280;28229;48.856;9.088;2022-10-16T02:11:43;97822.69;;;15.08;95.69
42601;BME280;28229;48.856;9.088;2022-10-16T02:14:09;97823.16;;;15.05;95.42
42601;BME280;28229;48.856;9.088;2022-10-16T02:16:38;97824.72;;;15.01;95.51
42601;BME280;28229;48.856;9.088;2022-10-16T02:19:04;97825.19;;;14.98;95.81
42601;BME280;28229;48.856;9.088;2022-10-16T02:24:22;97827.50;;;15.16;94.38
42601;BME280;28229;48.856;9.088;2022-10-16T02:29:32;97829.13;;;15.17;94.16
42601;BME280;28229;48.856;9.088;2022-10-16T02:32:02;97819.66;;;15.27;93.01
42601;BME280;28229;48.856;9.088;2022-10-16T02:34:32;97813.88;;;15.30;92.40
42601;BME280;28229;48.856;9.088;2022-10-16T02:37:00;97819.66;;;15.27;93.15
42601;BME280;28229;48.856;9.088;2022-10-16T02:39:28;97827.03;;;15.19;93.94
42601;BME280;28229;48.856;9.088;2022-10-16T02:41:55;97827.50;;;15.16;94.29
42601;BME280;28229;48.856;9.088;2022-10-16T02:44:20;97827.75;;;15.15;94.37
42601;BME280;28229;48.856;9.088;2022-10-16T02:46:46;97832.00;;;15.16;94.47
42601;BME280;28229;48.856;9.088;2022-10-16T02:49:12;97838.09;;;15.16;94.02
42601;BME280;28229;48.856;9.088;2022-10-16T02:51:38;97831.78;;;15.17;94.20
42601;BME280;28229;48.856;9.088;2022-10-16T02:54:04;97828.56;;;15.15;94.22
42601;BME280;28229;48.856;9.088;2022-10-16T02:56:30;97833.31;;;15.13;94.68
42601;BME280;28229;48.856;9.088;2022-10-16T02:58:56;97837.00;;;15.12;94.97
42601;BME280;28229;48.856;9.088;2022-10-16T03:01:23;97839.91;;;15.11;95.26
42601;BME280;28229;48.856;9.088;2022-10-16T03:03:49;97839.31;;;15.03;96.04
42601;BME280;28229;48.856;9.088;2022-10-16T03:06:15;97839.53;;;15.02;96.34
42601;BME280;28229;48.856;9.088;2022-10-16T03:08:41;97841.09;;;14.98;97.74
42601;BME280;28229;48.856;9.088;2022-10-16T03:11:07;97846.34;;;14.93;98.56
42601;BME280;28229;48.856;9.088;2022-10-16T03:13:32;97844.16;;;14.90;98.45
42601;BME280;28229;48.856;9.088;2022-10-16T03:15:58;97843.13;;;14.91;97.99
42601;BME280;28229;48.856;9.088;2022-10-16T03:18:24;97845.78;;;14.91;97.90
42601;BME280;28229;48.856;9.088;2022-10-16T03:20:50;97842.50;;;15.06;95.67
42601;BME280;28229;48.856;9.088;2022-10-16T03:23:16;97843.28;;;15.06;95.60
42601;BME280;28229;48.856;9.088;2022-10-16T03:25:41;97843.28;;;15.06;95.13
42601;BME280;28229;48.856;9.088;2022-10-16T03:28:07;97847.56;;;15.07;95.16
42601;BME280;28229;48.856;9.088;2022-10-16T03:30:33;97846.75;;;15.07;95.10
42601;BME280;28229;48.856;9.088;2022-10-16T03:32:59;97844.91;;;15.07;94.17
42601;BME280;28229;48.856;9.088;2022-10-16T03:35:25;97845.41;;;15.04;94.46
42601;BME280;28229;48.856;9.088;2022-10-16T03:37:51;97846.53;;;15.08;93.80
42601;BME280;28229;48.856;9.088;2022-10-16T03:40:17;97845.28;;;15.16;92.86
42601;BME280;28229;48.856;9.088;2022-10-16T03:42:43;97844.22;;;15.17;92.78
42601;BME280;28229;48.856;9.088;2022-10-16T03:45:10;97846.00;;;15.11;93.22
42601;BME280;28229;48.856;9.088;2022-10-16T03:47:36;97840.22;;;15.14;92.99
42601;BME280;28229;48.856;9.088;2022-10-16T03:50:03;97843.41;;;15.16;92.97
42601;BME280;28229;48.856;9.088;2022-10-16T03:52:29;97849.00;;;15.20;92.71
42601;BME280;28229;48.856;9.088;2022-10-16T03:54:55;97838.59;;;15.13;93.71
42601;BME280;28229;48.856;9.088;2022-10-16T03:57:21;97843.03;;;15.08;93.51
42601;BME280;28229;48.856;9.088;2022-10-16T03:59:47;97843.16;;;15.18;93.12
42601;BME280;28229;48.856;9.088;2022-10-16T04:02:13;97847.91;;;15.16;92.84
42601;BME280;28229;48.856;9.088;2022-10-16T04:04:39;97846.13;;;15.21;92.39
42601;BME280;28229;48.856;9.088;2022-10-16T04:07:04;97847.38;;;15.14;92.76
42601;BME280;28229;48.856;9.088;2022-10-16T04:09:30;97845.50;;;15.14;92.92
42601;BME280;28229;48.856;9.088;2022-10-16T04:11:56;97846.06;;;15.16;92.74
42601;BME280;28229;48.856;9.088;2022-10-16T04:14:22;97843.66;;;15.15;92.73
42601;BME280;28229;48.856;9.088;2022-10-16T04:16:48;97846.59;;;15.18;93.10
42601;BME280;28229;48.856;9.088;2022-10-16T04:19:13;97847.84;;;15.11;93.40
42601;BME280;28229;48.856;9.088;2022-10-16T04:21:39;97847.13;;;15.15;93.09
42601;BME280;28229;48.856;9.088;2022-10-16T04:24:05;97841.81;;;15.15;93.02
42601;BME280;28229;48.856;9.088;2022-10-16T04:26:31;97845.28;;;15.16;93.31
42601;BME280;28229;48.856;9.088;2022-10-16T04:28:57;97846.06;;;15.16;92.71
42601;BME280;28229;48.856;9.088;2022-10-16T04:31:22;97852.38;;;15.10;93.69
42601;BME280;28229;48.856;9.088;2022-10-16T04:33:48;97851.81;;;15.08;93.88
42601;BME280;28229;48.856;9.088;2022-10-16T04:36:14;97852.78;;;15.02;94.70
42601;BME280;28229;48.856;9.088;2022-10-16T04:38:40;97856.22;;;15.02;94.59
42601;BME280;28229;48.856;9.088;2022-10-16T04:41:07;97855.19;;;15.03;94.80
42601;BME280;28229;48.856;9.088;2022-10-16T04:43:33;97855.94;;;14.99;94.76
42601;BME280;28229;48.856;9.088;2022-10-16T04:45:59;97868.06;;;14.95;95.51
42601;BME280;28229;48.856;9.088;2022-10-16T04:48:25;97866.97;;;14.91;95.17
42601;BME280;28229;48.856;9.088;2022-10-16T04:50:50;97867.53;;;14.93;95.25
42601;BME280;28229;48.856;9.088;2022-10-16T04:53:17;97881.25;;;14.90;95.30
42601;BME280;28229;48.856;9.088;2022-10-16T04:55:43;97881.75;;;14.87;95.40
42601;BME280;28229;48.856;9.088;2022-10-16T04:58:09;97888.88;;;14.86;95.56
42601;BME280;28229;48.856;9.088;2022-10-16T05:00:35;97882.81;;;14.85;95.55
42601;BME280;28229;48.856;9.088;2022-10-16T05:03:01;97877.44;;;14.80;96.18
42601;BME280;28229;48.856;9.088;2022-10-16T05:05:31;97887.47;;;14.78;96.53
42601;BME280;28229;48.856;9.088;2022-10-16T05:07:57;97888.19;;;14.74;96.84
42601;BME280;28229;48.856;9.088;2022-10-16T05:10:23;97886.06;;;14.71;97.58
42601;BME280;28229;48.856;9.088;2022-10-16T05:12:49;97882.13;;;14.73;97.69
42601;BME280;28229;48.856;9.088;2022-10-16T05:15:15;97883.97;;;14.73;98.03
42601;BME280;28229;48.856;9.088;2022-10-16T05:17:41;97879.47;;;14.73;98.47
42601;BME280;28229;48.856;9.088;2022-10-16T05:20:07;97884.91;;;14.83;98.22
42601;BME280;28229;48.856;9.088;2022-10-16T05:22:33;97876.47;;;14.87;97.72
42601;BME280;28229;48.856;9.088;2022-10-16T05:24:59;97878.06;;;14.88;96.58
42601;BME280;28229;48.856;9.088;2022-10-16T05:27:24;97882.97;;;14.79;96.75
42601;BME280;28229;48.856;9.088;2022-10-16T05:29:50;97877.59;;;14.74;96.72
42601;BME280;28229;48.856;9.088;2022-10-16T05:32:17;97886.38;;;14.74;96.65
42601;BME280;28229;48.856;9.088;2022-10-16T05:34:43;97882.59;;;14.70;96.52
42601;BME280;28229;48.856;9.088;2022-10-16T05:37:09;97884.94;;;14.66;96.95
42601;BME280;28229;48.856;9.088;2022-10-16T05:39:45;97893.44;;;14.69;100.00
42601;BME280;28229;48.856;9.088;2022-10-16T05:42:10;97892.72;;;14.73;99.17
42601;BME280;28229;48.856;9.088;2022-10-16T05:44:36;97897.16;;;14.90;97.61
42601;BME280;28229;48.856;9.088;2022-10-16T05:47:03;97886.06;;;14.93;97.04
42601;BME280;28229;48.856;9.088;2022-10-16T05:49:29;97895.63;;;14.94;98.80
42601;BME280;28229;48.856;9.088;2022-10-16T05:51:55;97902.75;;;14.93;98.60
42601;BME280;28229;48.856;9.088;2022-10-16T05:54:21;97907.75;;;14.90;99.40
42601;BME280;28229;48.856;9.088;2022-10-16T05:56:47;97914.66;;;14.91;99.60
42601;BME280;28229;48.856;9.088;2022-10-16T05:59:13;97912.00;;;14.91;99.42
42601;BME280;28229;48.856;9.088;2022-10-16T06:01:38;97919.88;;;14.85;99.84
42601;BME280;28229;48.856;9.088;2022-10-16T06:04:04;97924.63;;;14.83;99.45
42601;BME280;28229;48.856;9.088;2022-10-16T06:06:30;97915.31;;;14.81;99.68
42601;BME280;28229;48.856;9.088;2022-10-16T06:08:56;97909.75;;;14.82;98.46
42601;BME280;28229;48.856;9.088;2022-10-16T06:11:28;97911.94;;;14.85;98.66
42601;BME280;28229;48.856;9.088;2022-10-16T06:13:56;97914.91;;;14.89;97.72
42601;BME280;28229;48.856;9.088;2022-10-16T06:16:26;97921.44;;;14.81;98.78
42601;BME280;28229;48.856;9.088;2022-10-16T06:18:54;97921.13;;;14.78;98.93
42601;BME280;28229;48.856;9.088;2022-10-16T06:21:22;97919.66;;;14.70;99.21
42601;BME280;28229;48.856;9.088;2022-10-16T06:23:50;97924.34;;;14.63;100.00
42601;BME280;28229;48.856;9.088;2022-10-16T06:26:18;97913.03;;;14.68;100.00
42601;BME280;28229;48.856;9.088;2022-10-16T06:28:45;97924.97;;;14.70;99.68
42601;BME280;28229;48.856;9.088;2022-10-16T06:31:11;97925.19;;;14.69;99.83
42601;BME280;28229;48.856;9.088;2022-10-16T06:33:38;97931.56;;;14.68;100.00
42601;BME280;28229;48.856;9.088;2022-10-16T06:36:09;97923.78;;;14.61;100.00
42601;BME280;28229;48.856;9.088;2022-10-16T06:38:36;97924.97;;;14.70;100.00
42601;BME280;28229;48.856;9.088;2022-10-16T06:41:02;97933.16;;;14.69;100.00
42601;BME280;28229;48.856;9.088;2022-10-16T06:43:29;97937.88;;;14.66;100.00
42601;BME280;28229;48.856;9.088;2022-10-16T06:46:01;97947.91;;;14.64;100.00
42601;BME280;28229;48.856;9.088;2022-10-16T06:48:30;97947.13;;;14.64;100.00
42601;BME280;28229;48.856;9.088;2022-10-16T06:53:22;97958.19;;;14.61;100.00
42601;BME280;28229;48.856;9.088;2022-10-16T06:55:48;97964.13;;;14.68;100.00
42601;BME280;28229;48.856;9.088;2022-10-16T06:58:13;97967.41;;;14.75;100.00
42601;BME280;28229;48.856;9.088;2022-10-16T07:00:39;97969.25;;;14.75;100.00
42601;BME280;28229;48.856;9.088;2022-10-16T07:03:05;97970.69;;;14.82;100.00
42601;BME280;28229;48.856;9.088;2022-10-16T07:05:31;97974.13;;;14.83;100.00
42601;BME280;28229;48.856;9.088;2022-10-16T07:07:57;97981.81;;;14.84;100.00
42601;BME280;28229;48.856;9.088;2022-10-16T07:10:23;97984.47;;;14.84;100.00
42601;BME280;28229;48.856;9.088;2022-10-16T07:12:51;97982.16;;;14.88;100.00
42601;BME280;28229;48.856;9.088;2022-10-16T07:15:17;97990.09;;;14.88;100.00
42601;BME280;28229;48.856;9.088;2022-10-16T07:17:43;97988.03;;;14.90;100.00
42601;BME280;28229;48.856;9.088;2022-10-16T07:20:09;97989.84;;;14.90;100.00
42601;BME280;28229;48.856;9.088;2022-10-16T07:22:35;97994.91;;;14.91;100.00
42601;BME280;28229;48.856;9.088;2022-10-16T07:25:00;97999.41;;;14.91;100.00
42601;BME280;28229;48.856;9.088;2022-10-16T07:27:28;98009.03;;;14.97;100.00
42601;BME280;28229;48.856;9.088;2022-10-16T07:29:53;98002.94;;;14.96;100.00
42601;BME280;28229;48.856;9.088;2022-10-16T07:32:19;98009.53;;;14.94;100.00
42601;BME280;28229;48.856;9.088;2022-10-16T07:34:45;98016.56;;;15.05;100.00
42601;BME280;28229;48.856;9.088;2022-10-16T07:37:11;98009.66;;;15.04;100.00
42601;BME280;28229;48.856;9.088;2022-10-16T07:39:37;98004.59;;;15.02;100.00
42601;BME280;28229;48.856;9.088;2022-10-16T07:42:02;98005.97;;;15.05;100.00
42601;BME280;28229;48.856;9.088;2022-10-16T07:44:28;98003.88;;;15.07;100.00
42601;BME280;28229;48.856;9.088;2022-10-16T07:46:54;98004.56;;;15.19;100.00
42601;BME280;28229;48.856;9.088;2022-10-16T07:49:20;98011.03;;;15.29;98.15
42601;BME280;28229;48.856;9.088;2022-10-16T07:51:46;98008.16;;;15.30;97.83
42601;BME280;28229;48.856;9.088;2022-10-16T07:54:12;98021.00;;;15.38;96.93
42601;BME280;28229;48.856;9.088;2022-10-16T07:56:37;98021.03;;;15.43;95.93
42601;BME280;28229;48.856;9.088;2022-10-16T07:59:03;98027.53;;;15.53;93.68
42601;BME280;28229;48.856;9.088;2022-10-16T08:01:29;98027.38;;;15.65;93.86
42601;BME280;28229;48.856;9.088;2022-10-16T08:03:55;98028.50;;;15.69;94.81
42601;BME280;28229;48.856;9.088;2022-10-16T08:06:22;98035.94;;;15.72;96.09
42601;BME280;28229;48.856;9.088;2022-10-16T08:08:49;98035.00;;;15.78;96.55
42601;BME280;28229;48.856;9.088;2022-10-16T08:11:15;98035.13;;;15.88;96.19
42601;BME280;28229;48.856;9.088;2022-10-16T08:13:42;98045.75;;;15.93;94.84
42601;BME280;28229;48.856;9.088;2022-10-16T08:16:08;98032.13;;;16.07;91.43
42601;BME280;28229;48.856;9.088;2022-10-16T08:18:36;98035.38;;;16.14;91.91
42601;BME280;28229;48.856;9.088;2022-10-16T08:21:03;98041.59;;;16.25;91.07
42601;BME280;28229;48.856;9.088;2022-10-16T08:23:30;98044.03;;;16.31;90.65
42601;BME280;28229;48.856;9.088;2022-10-16T08:26:02;98046.50;;;16.43;88.13
42601;BME280;28229;48.856;9.088;2022-10-16T08:28:29;98058.56;;;16.51;86.35
42601;BME280;28229;48.856;9.088;2022-10-16T08:30:55;98067.59;;;16.55;85.55
42601;BME280;28229;48.856;9.088;2022-10-16T08:33:22;98062.94;;;16.67;85.64
42601;BME280;28229;48.856;9.088;2022-10-16T08:35:52;98066.66;;;16.71;86.04
42601;BME280;28229;48.856;9.088;2022-10-16T08:38:20;98066.75;;;16.82;85.53
42601;BME280;28229;48.856;9.088;2022-10-16T08:40:46;98066.34;;;16.90;85.29
42601;BME280;28229;48.856;9.088;2022-10-16T08:48:50;98068.59;;;17.13;83.89
42601;BME280;28229;48.856;9.088;2022-10-16T08:51:24;98061.50;;;17.24;82.31
42601;BME280;28229;48.856;9.088;2022-10-16T08:53:57;98062.84;;;17.32;81.45
42601;BME280;28229;48.856;9.088;2022-10-16T08:56:25;98066.09;;;17.39;81.49
42601;BME280;28229;48.856;9.088;2022-10-16T08:58:52;98061.88;;;17.43;80.88
42601;BME280;28229;48.856;9.088;2022-10-16T09:01:20;98057.09;;;17.45;81.15
42601;BME280;28229;48.856;9.088;2022-10-16T09:04:04;98056.03;;;17.51;82.08
42601;BME280;28229;48.856;9.088;2022-10-16T09:06:44;98063.50;;;17.55;81.35
42601;BME280;28229;48.856;9.088;2022-10-16T09:11:57;98068.84;;;17.60;79.96
42601;BME280;28229;48.856;9.088;2022-10-16T09:19:53;98066.25;;;17.75;78.89
42601;BME280;28229;48.856;9.088;2022-10-16T09:22:27;98079.84;;;17.74;78.71
42601;BME280;28229;48.856;9.088;2022-10-16T09:24:59;98084.09;;;17.80;77.58
42601;BME280;28229;48.856;9.088;2022-10-16T09:27:26;98085.47;;;17.87;77.49
42601;BME280;28229;48.856;9.088;2022-10-16T09:29:52;98086.03;;;17.95;76.53
42601;BME280;28229;48.856;9.088;2022-10-16T09:32:20;98087.13;;;17.99;76.84
42601;BME280;28229;48.856;9.088;2022-10-16T09:34:53;98087.16;;;18.09;75.04
42601;BME280;28229;48.856;9.088;2022-10-16T09:37:35;98090.38;;;18.11;75.33
42601;BME280;28229;48.856;9.088;2022-10-16T09:40:01;98093.28;;;18.20;75.50
42601;BME280;28229;48.856;9.088;2022-10-16T09:42:31;98100.00;;;18.27;75.64
42601;BME280;28229;48.856;9.088;2022-10-16T09:44:58;98100.03;;;18.38;76.37
42601;BME280;28229;48.856;9.088;2022-10-16T09:47:26;98110.66;;;18.48;74.27
42601;BME280;28229;48.856;9.088;2022-10-16T09:49:58;98105.34;;;18.58;75.50
42601;BME280;28229;48.856;9.088;2022-10-16T09:52:28;98104.03;;;18.76;74.75
42601;BME280;28229;48.856;9.088;2022-10-16T09:55:13;98108.34;;;18.88;73.13
42601;BME280;28229;48.856;9.088;2022-10-16T09:57:52;98109.69;;;19.00;71.73
42601;BME280;28229;48.856;9.088;2022-10-16T10:00:19;98115.00;;;19.06;72.86
42601;BME280;28229;48.856;9.088;2022-10-16T10:02:46;98116.59;;;19.17;73.67
42601;BME280;28229;48.856;9.088;2022-10-16T10:05:23;98121.91;;;19.27;72.76
42601;BME280;28229;48.856;9.088;2022-10-16T10:08:03;98123.50;;;19.28;70.96
42601;BME280;28229;48.856;9.088;2022-10-16T10:10:41;98120.81;;;19.33;70.22
42601;BME280;28229;48.856;9.088;2022-10-16T10:13:22;98123.22;;;19.45;70.38
42601;BME280;28229;48.856;9.088;2022-10-16T10:15:50;98125.56;;;19.57;69.69
42601;BME280;28229;48.856;9.088;2022-10-16T10:18:21;98133.03;;;19.65;69.91
42601;BME280;28229;48.856;9.088;2022-10-16T10:21:02;98126.09;;;19.74;68.09
42601;BME280;28229;48.856;9.088;2022-10-16T10:23:29;98125.81;;;19.81;67.39
42601;BME280;28229;48.856;9.088;2022-10-16T10:26:12;98121.50;;;19.90;67.75
42601;BME280;28229;48.856;9.088;2022-10-16T10:28:55;98129.50;;;19.95;67.34
42601;BME280;28229;48.856;9.088;2022-10-16T10:31:36;98132.38;;;20.09;67.04
42601;BME280;28229;48.856;9.088;2022-10-16T10:34:33;98133.41;;;20.19;67.67
42601;BME280;28229;48.856;9.088;2022-10-16T10:37:20;98137.06;;;20.33;68.19
42601;BME280;28229;48.856;9.088;2022-10-16T10:45:47;98137.94;;;20.68;66.92
42601;BME280;28229;48.856;9.088;2022-10-16T10:51:20;98133.19;;;20.94;65.03
42601;BME280;28229;48.856;9.088;2022-10-16T10:56:51;98138.09;;;21.16;63.58
42601;BME280;28229;48.856;9.088;2022-10-16T10:59:49;98138.81;;;21.27;65.43
42601;BME280;28229;48.856;9.088;2022-10-16T11:02:30;98133.69;;;21.30;62.63
42601;BME280;28229;48.856;9.088;2022-10-16T11:05:28;98133.19;;;21.28;63.24
42601;BME280;28229;48.856;9.088;2022-10-16T11:08:00;98128.59;;;21.58;62.30
42601;BME280;28229;48.856;9.088;2022-10-16T11:10:30;98125.41;;;22.04;63.13
42601;BME280;28229;48.856;9.088;2022-10-16T11:13:19;98126.56;;;22.41;62.00
42601;BME280;28229;48.856;9.088;2022-10-16T11:15:48;98138.34;;;22.59;61.99
42601;BME280;28229;48.856;9.088;2022-10-16T11:18:25;98136.31;;;22.70;60.55
42601;BME280;28229;48.856;9.088;2022-10-16T11:20:57;98133.56;;;22.75;60.65
42601;BME280;28229;48.856;9.088;2022-10-16T11:23:30;98137.94;;;22.85;59.28
42601;BME280;28229;48.856;9.088;2022-10-16T11:26:03;98132.63;;;22.99;60.58
42601;BME280;28229;48.856;9.088;2022-10-16T11:28:34;98125.44;;;23.13;60.83
42601;BME280;28229;48.856;9.088;2022-10-16T11:31:19;98125.38;;;23.18;59.93
42601;BME280;28229;48.856;9.088;2022-10-16T11:34:04;98119.53;;;23.30;58.45
42601;BME280;28229;48.856;9.088;2022-10-16T11:41:48;98125.06;;;23.94;57.68
42601;BME280;28229;48.856;9.088;2022-10-16T11:49:53;98122.97;;;24.42;54.41
42601;BME280;28229;48.856;9.088;2022-10-16T11:52:27;98126.03;;;24.49;53.27
42601;BME280;28229;48.856;9.088;2022-10-16T11:55:09;98131.31;;;24.54;53.84
42601;BME280;28229;48.856;9.088;2022-10-16T11:57:43;98123.94;;;24.60;53.82
42601;BME280;28229;48.856;9.088;2022-10-16T12:00:28;98117.91;;;24.77;53.08
42601;BME280;28229;48.856;9.088;2022-10-16T12:05:52;98118.75;;;25.08;51.65
42601;BME280;28229;48.856;9.088;2022-10-16T12:08:21;98115.09;;;25.13;51.84
42601;BME280;28229;48.856;9.088;2022-10-16T12:10:48;98115.38;;;25.03;50.64
42601;BME280;28229;48.856;9.088;2022-10-16T12:18:38;98117.84;;;25.22;48.29
42601;BME280;28229;48.856;9.088;2022-10-16T12:21:04;98123.88;;;25.19;48.30
42601;BME280;28229;48.856;9.088;2022-10-16T12:23:46;98117.13;;;25.07;48.25
42601;BME280;28229;48.856;9.088;2022-10-16T12:26:13;98110.31;;;25.01;49.23
42601;BME280;28229;48.856;9.088;2022-10-16T12:28:39;98115.88;;;25.05;49.29
42601;BME280;28229;48.856;9.088;2022-10-16T12:31:08;98114.50;;;25.16;49.28
42601;BME280;28229;48.856;9.088;2022-10-16T12:33:39;98114.53;;;25.48;49.73
42601;BME280;28229;48.856;9.088;2022-10-16T12:36:38;98117.19;;;25.88;48.93
42601;BME280;28229;48.856;9.088;2022-10-16T12:39:04;98114.88;;;26.03;48.59
42601;BME280;28229;48.856;9.088;2022-10-16T12:41:32;98118.84;;;26.06;48.69
42601;BME280;28229;48.856;9.088;2022-10-16T12:43:59;98119.19;;;26.13;48.87
42601;BME280;28229;48.856;9.088;2022-10-16T12:49:21;98114.59;;;26.40;47.70
42601;BME280;28229;48.856;9.088;2022-10-16T12:51:50;98114.44;;;26.54;47.47
42601;BME280;28229;48.856;9.088;2022-10-16T12:54:22;98125.69;;;26.56;46.66
42601;BME280;28229;48.856;9.088;2022-10-16T12:59:40;98134.94;;;26.81;47.40
42601;BME280;28229;48.856;9.088;2022-10-16T13:11:10;98142.00;;;26.07;47.03
42601;BME280;28229;48.856;9.088;2022-10-16T13:19:25;98137.38;;;25.59;48.73
42601;BME280;28229;48.856;9.088;2022-10-16T13:22:15;98129.88;;;25.47;49.76
42601;BME280;28229;48.856;9.088;2022-10-16T13:30:40;98126.09;;;24.94;51.12
42601;BME280;28229;48.856;9.088;2022-10-16T13:35:57;98130.31;;;24.64;53.04
42601;BME280;28229;48.856;9.088;2022-10-16T13:38:29;98131.91;;;24.51;52.98
42601;BME280;28229;48.856;9.088;2022-10-16T13:40:59;98129.38;;;24.32;53.56
42601;BME280;28229;48.856;9.088;2022-10-16T13:43:33;98132.63;;;24.43;53.77
42601;BME280;28229;48.856;9.088;2022-10-16T13:46:06;98137.22;;;24.79;54.38
42601;BME280;28229;48.856;9.088;2022-10-16T13:48:33;98143.56;;;25.05;53.10
42601;BME280;28229;48.856;9.088;2022-10-16T13:51:01;98137.81;;;25.21;52.64
42601;BME280;28229;48.856;9.088;2022-10-16T13:53:33;98133.50;;;25.42;52.07
42601;BME280;28229;48.856;9.088;2022-10-16T13:56:02;98130.84;;;25.51;51.06
42601;BME280;28229;48.856;9.088;2022-10-16T13:58:28;98131.47;;;25.48;50.41
42601;BME280;28229;48.856;9.088;2022-10-16T14:01:02;98130.78;;;25.11;49.86
42601;BME280;28229;48.856;9.088;2022-10-16T14:03:30;98132.31;;;25.03;51.15
42601;BME280;28229;48.856;9.088;2022-10-16T14:06:00;98131.41;;;24.85;51.02
42601;BME280;28229;48.856;9.088;2022-10-16T14:08:28;98127.75;;;24.45;50.94
42601;BME280;28229;48.856;9.088;2022-10-16T14:10:57;98134.44;;;24.33;51.79
42601;BME280;28229;48.856;9.088;2022-10-16T14:13:34;98135.25;;;24.20;52.28
42601;BME280;28229;48.856;9.088;2022-10-16T14:16:06;98134.97;;;24.22;53.13
42601;BME280;28229;48.856;9.088;2022-10-16T14:18:33;98130.09;;;24.10;53.20
42601;BME280;28229;48.856;9.088;2022-10-16T14:21:06;98139.28;;;23.95;53.92
42601;BME280;28229;48.856;9.088;2022-10-16T14:23:37;98140.28;;;23.85;54.75
42601;BME280;28229;48.856;9.088;2022-10-16T14:28:34;98135.97;;;23.70;55.03
42601;BME280;28229;48.856;9.088;2022-10-16T14:31:01;98144.25;;;23.60;55.23
42601;BME280;28229;48.856;9.088;2022-10-16T14:33:31;98135.84;;;23.62;55.14
42601;BME280;28229;48.856;9.088;2022-10-16T14:36:13;98142.94;;;23.57;56.30
42601;BME280;28229;48.856;9.088;2022-10-16T14:38:47;98150.78;;;23.54;56.65
42601;BME280;28229;48.856;9.088;2022-10-16T14:41:14;98148.97;;;23.49;57.05
42601;BME280;28229;48.856;9.088;2022-10-16T14:43:42;98147.91;;;23.50;56.84